Time;durP1;ratioP1;P1;durP2;ratioP2;P2;SDS_P1;SDS_P2;PMS_P1;PMS_P2;Temp;Humidity;BMP_temperature;BMP_pressure;BME280_temperature;BME280_humidity;BME280_pressure;Samples;Min_cycle;Max_cycle;Signal;HPM_P1;HPM_P2
2023/03/31 00:00:26;;;;;;;2.50;1.40;;;;;;;13.90;47.12;99056.03;6186218;23;20174;-88
2023/03/31 00:02:53;;;;;;;2.43;1.30;;;;;;;13.99;46.96;99055.41;6186122;23;20614;-87
2023/03/31 00:05:20;;;;;;;4.00;1.53;;;;;;;14.03;46.63;99046.34;6184910;23;20247;-87
2023/03/31 00:07:47;;;;;;;2.60;1.10;;;;;;;14.12;46.46;99050.97;6186472;23;20219;-87
2023/03/31 00:10:14;;;;;;;4.33;2.03;;;;;;;14.10;46.40;99052.88;6186026;23;20165;-87
2023/03/31 00:12:39;;;;;;;4.20;1.20;;;;;;;14.16;46.15;99051.63;6160012;23;20182;-87
2023/03/31 00:15:06;;;;;;;4.37;2.03;;;;;;;14.15;46.30;99042.03;6160065;23;20161;-87
2023/03/31 00:17:32;;;;;;;7.43;2.97;;;;;;;14.13;46.25;99038.66;6186331;23;20225;-87
2023/03/31 00:19:59;;;;;;;9.37;2.50;;;;;;;14.16;46.22;99041.94;6185971;23;20223;-87
2023/03/31 00:22:26;;;;;;;7.60;2.70;;;;;;;14.16;46.10;99038.44;6186169;23;20232;-87
2023/03/31 00:24:52;;;;;;;9.40;3.20;;;;;;;14.05;46.23;99043.59;6186261;23;20188;-87
2023/03/31 00:27:18;;;;;;;4.67;2.17;;;;;;;14.13;46.22;99039.50;6185624;23;20154;-88
2023/03/31 00:29:44;;;;;;;9.60;2.30;;;;;;;14.22;46.13;99035.41;6159874;23;20154;-88
2023/03/31 00:32:10;;;;;;;6.73;1.27;;;;;;;14.20;45.78;99031.19;6185786;23;20146;-87
2023/03/31 00:34:37;;;;;;;4.50;1.67;;;;;;;14.21;45.73;99035.50;6186184;23;20165;-87
2023/03/31 00:37:03;;;;;;;3.10;1.47;;;;;;;14.26;45.39;99034.22;6185875;23;20154;-87
2023/03/31 00:39:30;;;;;;;4.77;1.13;;;;;;;14.29;45.30;99039.28;6186125;23;20151;-87
2023/03/31 00:41:57;;;;;;;4.10;1.60;;;;;;;14.27;45.21;99029.81;6186143;23;20157;-88
2023/03/31 00:44:24;;;;;;;4.37;1.47;;;;;;;14.30;45.57;99037.50;6159659;23;20196;-87
2023/03/31 00:47:01;;;;;;;2.37;1.00;;;;;;;14.28;45.35;99029.69;6185750;23;20543;-87
2023/03/31 00:49:39;;;;;;;2.87;1.10;;;;;;;14.25;45.16;99024.66;6186105;23;20145;-88
2023/03/31 00:52:07;;;;;;;5.17;1.80;;;;;;;14.29;45.36;99015.56;6185764;23;20135;-87
2023/03/31 00:54:35;;;;;;;4.77;2.10;;;;;;;14.21;45.72;99017.03;6186067;23;20142;-87
2023/03/31 00:57:05;;;;;;;4.80;1.47;;;;;;;14.32;45.75;99015.38;6185650;23;20617;-87
2023/03/31 00:59:37;;;;;;;4.73;1.60;;;;;;;14.30;45.59;99017.25;6185706;23;20181;-87
2023/03/31 01:02:03;;;;;;;2.80;1.33;;;;;;;14.26;45.71;99014.91;6185686;23;20138;-87
2023/03/31 01:04:40;;;;;;;3.83;1.57;;;;;;;14.16;45.77;99012.09;6185847;23;20273;-88
2023/03/31 01:07:47;;;;;;;2.90;1.10;;;;;;;14.10;45.35;99016.00;6186180;23;20231;-87
2023/03/31 01:10:13;;;;;;;4.33;1.60;;;;;;;14.11;45.62;99012.41;6047639;23;20273;-87
2023/03/31 01:12:44;;;;;;;4.60;1.30;;;;;;;14.12;45.24;99008.81;6141168;23;20246;-87
2023/03/31 01:15:10;;;;;;;4.40;2.00;;;;;;;14.03;45.67;99012.09;6156101;23;20146;-87
2023/03/31 01:17:36;;;;;;;2.17;1.00;;;;;;;14.07;45.67;99010.09;6155819;23;20154;-87
2023/03/31 01:20:25;;;;;;;3.67;1.20;;;;;;;13.88;46.29;99002.59;6155712;23;20162;-87
2023/03/31 01:23:15;;;;;;;5.47;1.47;;;;;;;13.59;46.45;98993.19;6156275;23;20198;-88
2023/03/31 01:25:52;;;;;;;4.13;1.50;;;;;;;13.72;46.46;98998.47;6156395;23;20143;-87
2023/03/31 01:29:03;;;;;;;2.90;1.37;;;;;;;13.64;46.63;98999.00;6155647;23;20174;-87
2023/03/31 01:31:51;;;;;;;2.17;1.23;;;;;;;13.48;46.87;99006.22;6063811;23;20225;-88
2023/03/31 01:34:32;;;;;;;3.30;1.40;;;;;;;13.41;46.65;99004.94;6156002;23;20229;-87
2023/03/31 01:37:23;;;;;;;3.53;1.10;;;;;;;13.12;48.01;99004.22;6156237;23;20138;-87
2023/03/31 01:40:16;;;;;;;2.23;1.07;;;;;;;13.25;47.30;99006.91;6129939;23;20146;-87
2023/03/31 01:42:45;;;;;;;3.37;1.40;;;;;;;13.15;47.46;99000.56;6155852;23;20170;-87
2023/03/31 01:45:19;;;;;;;3.47;1.37;;;;;;;13.07;47.46;99000.19;6129811;23;20165;-87
2023/03/31 01:47:56;;;;;;;2.70;1.23;;;;;;;12.95;47.53;98991.25;6155975;23;20136;-87
2023/03/31 01:50:42;;;;;;;1.93;1.23;;;;;;;13.00;47.42;98991.00;6156298;23;20520;-87
2023/03/31 01:53:27;;;;;;;2.57;0.93;;;;;;;12.91;47.66;98995.91;6155865;23;20140;-87
2023/03/31 01:56:18;;;;;;;3.10;1.37;;;;;;;12.77;47.66;98993.28;6155888;23;20197;-88
2023/03/31 01:58:57;;;;;;;5.50;1.97;;;;;;;12.40;49.00;98983.41;6155883;23;20141;-87
2023/03/31 02:01:36;;;;;;;2.13;1.10;;;;;;;12.44;48.99;98986.69;6155908;23;20203;-88
2023/03/31 02:04:13;;;;;;;3.60;1.97;;;;;;;12.41;49.20;98979.84;6155450;23;20170;-87
2023/03/31 02:06:44;;;;;;;4.43;2.00;;;;;;;12.33;48.81;98982.94;6155835;23;20147;-87
2023/03/31 02:09:15;;;;;;;3.23;1.93;;;;;;;12.11;48.92;98981.72;6155836;23;20137;-87
2023/03/31 02:11:42;;;;;;;3.90;2.30;;;;;;;12.06;49.04;98971.50;6183636;23;20163;-87
2023/03/31 02:14:11;;;;;;;3.83;1.97;;;;;;;11.92;49.57;98970.66;6185761;23;20222;-87
2023/03/31 02:16:46;;;;;;;4.80;1.80;;;;;;;11.82;49.79;98980.03;6159194;23;20151;-87
2023/03/31 02:19:17;;;;;;;7.87;2.50;;;;;;;11.68;50.17;98983.44;6185554;23;20131;-87
2023/03/31 02:21:47;;;;;;;6.37;2.73;;;;;;;11.68;50.20;98984.34;6186236;23;20146;-87
2023/03/31 02:24:15;;;;;;;4.87;1.93;;;;;;;11.65;50.20;98981.00;6185022;23;20280;-87
2023/03/31 02:26:51;;;;;;;4.17;2.27;;;;;;;11.64;49.85;98976.69;6185485;23;20231;-87
2023/03/31 02:29:16;;;;;;;8.00;2.87;;;;;;;11.62;49.82;98984.66;6185465;23;20206;-87
2023/03/31 02:32:01;;;;;;;5.97;2.33;;;;;;;11.61;49.79;98979.47;6185180;23;20160;-87
2023/03/31 02:34:26;;;;;;;5.20;2.10;;;;;;;11.55;49.81;98982.50;6185439;23;20464;-87
2023/03/31 02:36:52;;;;;;;5.03;2.60;;;;;;;11.45;49.99;98986.59;6185097;23;20230;-87
2023/03/31 02:39:24;;;;;;;4.93;2.23;;;;;;;11.15;51.03;98975.22;6185109;23;20574;-87
2023/03/31 02:41:50;;;;;;;4.23;2.00;;;;;;;11.00;51.38;98966.47;6185119;23;20162;-87
2023/03/31 02:44:16;;;;;;;3.80;2.33;;;;;;;10.99;51.59;98970.00;6185021;23;20183;-87
2023/03/31 02:46:42;;;;;;;4.43;2.13;;;;;;;10.93;52.13;98972.97;6185337;23;20241;-87
2023/03/31 02:49:10;;;;;;;5.33;2.47;;;;;;;10.88;52.06;98975.00;6185029;23;20201;-87
2023/03/31 02:51:53;;;;;;;3.80;1.80;;;;;;;10.86;52.08;98963.78;6185853;23;20226;-87
2023/03/31 02:54:37;;;;;;;6.93;3.47;;;;;;;10.86;51.51;98971.63;6186791;23;20147;-87
2023/03/31 02:57:25;;;;;;;6.33;2.27;;;;;;;10.76;52.21;98979.19;6160837;23;20554;-87
2023/03/31 03:00:06;;;;;;;5.57;2.03;;;;;;;10.68;52.89;98991.00;6187137;23;20135;-87
2023/03/31 03:03:10;;;;;;;4.03;1.90;;;;;;;10.56;53.17;98982.03;6186738;23;20135;-87
2023/03/31 03:06:17;;;;;;;4.83;2.50;;;;;;;10.52;53.47;98977.06;6187350;23;20229;-87
2023/03/31 03:09:06;;;;;;;5.13;2.47;;;;;;;10.53;53.47;98973.53;6187115;23;20194;-87
2023/03/31 03:11:53;;;;;;;5.73;2.40;;;;;;;10.66;52.86;98985.03;6182038;23;20170;-87
2023/03/31 03:14:33;;;;;;;6.63;2.17;;;;;;;10.60;52.57;98978.34;6179063;23;20222;-87
2023/03/31 03:17:09;;;;;;;6.47;2.43;;;;;;;10.66;52.87;98982.41;6176742;23;20134;-87
2023/03/31 03:19:34;;;;;;;5.17;2.27;;;;;;;10.72;52.58;98982.03;6187146;23;20130;-87
2023/03/31 03:22:00;;;;;;;4.27;2.40;;;;;;;10.76;52.20;98980.94;6185334;23;20490;-87
2023/03/31 03:24:28;;;;;;;5.60;1.77;;;;;;;10.67;52.70;98970.97;6186533;23;20186;-87
2023/03/31 03:26:54;;;;;;;6.47;1.83;;;;;;;10.74;52.82;98970.56;6186516;23;20477;-87
2023/03/31 03:29:19;;;;;;;3.33;1.80;;;;;;;10.86;51.96;98977.72;6186520;23;20571;-87
2023/03/31 03:31:45;;;;;;;5.53;2.53;;;;;;;10.88;51.97;98975.00;6185117;23;20176;-87
2023/03/31 03:34:10;;;;;;;2.90;1.80;;;;;;;10.95;51.71;98981.63;6186838;23;20174;-87
2023/03/31 03:36:37;;;;;;;8.40;2.77;;;;;;;10.92;51.92;98979.16;6185255;23;20160;-86
2023/03/31 03:39:03;;;;;;;5.43;2.83;;;;;;;10.96;51.90;98985.91;6186812;23;20589;-87
2023/03/31 03:41:30;;;;;;;5.90;3.10;;;;;;;10.96;51.94;98983.28;6185212;23;20492;-87
2023/03/31 03:43:56;;;;;;;6.83;3.10;;;;;;;10.96;51.76;98988.53;6186629;23;20178;-87
2023/03/31 03:46:21;;;;;;;6.70;2.77;;;;;;;11.04;51.57;98991.56;6186381;23;20162;-86
2023/03/31 03:48:47;;;;;;;3.67;1.90;;;;;;;11.18;50.73;98993.41;6186372;23;20150;-87
2023/03/31 03:51:12;;;;;;;11.93;2.63;;;;;;;11.18;50.31;99001.28;6186354;23;20147;-87
2023/03/31 03:53:37;;;;;;;3.63;2.07;;;;;;;11.16;49.95;99006.63;6186295;23;20533;-87
2023/03/31 03:56:03;;;;;;;7.60;2.53;;;;;;;11.19;48.98;99001.19;6186713;23;20150;-86
2023/03/31 03:58:28;;;;;;;5.77;1.70;;;;;;;11.06;49.61;99001.03;6186248;23;20150;-86
2023/03/31 04:00:55;;;;;;;3.13;1.70;;;;;;;11.11;48.99;99004.25;6184861;23;20155;-87
2023/03/31 04:03:21;;;;;;;5.43;2.50;;;;;;;11.15;48.78;99004.94;6185041;23;20268;-86
2023/03/31 04:05:50;;;;;;;3.50;1.77;;;;;;;11.09;48.98;99000.88;6185513;23;20558;-87
2023/03/31 04:08:17;;;;;;;4.83;2.57;;;;;;;11.03;49.37;98995.16;6186534;23;20220;-86
2023/03/31 04:10:47;;;;;;;4.40;2.20;;;;;;;11.10;48.75;98986.00;6185996;23;20212;-86
2023/03/31 04:13:13;;;;;;;4.70;2.43;;;;;;;10.97;48.88;98982.38;6160249;23;20513;-87
2023/03/31 04:15:39;;;;;;;4.00;2.13;;;;;;;11.01;49.06;98986.50;6160169;23;20554;-87
2023/03/31 04:18:05;;;;;;;4.93;1.83;;;;;;;11.06;49.39;98992.31;6186066;23;20157;-87
2023/03/31 04:20:30;;;;;;;8.23;2.27;;;;;;;11.08;49.42;98987.88;6186676;23;20150;-87
2023/03/31 04:22:56;;;;;;;9.47;2.87;;;;;;;11.10;49.05;98988.63;6186196;23;20206;-87
2023/03/31 04:25:21;;;;;;;6.63;2.20;;;;;;;11.21;48.61;98988.84;6186582;23;20214;-87
2023/03/31 04:27:49;;;;;;;3.97;1.77;;;;;;;11.20;48.02;98995.03;6185981;23;20146;-87
2023/03/31 04:30:22;;;;;;;3.77;2.07;;;;;;;11.16;47.68;99006.63;6185934;23;20161;-87
2023/03/31 04:32:51;;;;;;;4.13;2.20;;;;;;;10.95;48.32;99003.41;6186227;23;20161;-87
2023/03/31 04:35:19;;;;;;;3.23;1.83;;;;;;;10.71;48.48;99010.06;6160960;23;20233;-86
2023/03/31 04:37:48;;;;;;;4.13;2.33;;;;;;;10.62;49.32;99007.06;6185811;23;20155;-86
2023/03/31 04:40:15;;;;;;;6.90;2.20;;;;;;;10.69;49.13;99003.19;6185783;23;20180;-87
2023/03/31 04:42:41;;;;;;;3.47;1.87;;;;;;;10.75;49.30;99010.72;6185526;23;20157;-87
2023/03/31 04:45:07;;;;;;;4.67;1.97;;;;;;;10.68;49.26;99014.59;6159702;23;20162;-87
2023/03/31 04:47:32;;;;;;;4.37;2.03;;;;;;;10.63;49.63;99007.00;6185775;23;20150;-87
2023/03/31 04:49:57;;;;;;;3.57;2.13;;;;;;;10.55;50.68;99013.59;6185226;23;20236;-87
2023/03/31 04:52:23;;;;;;;4.13;2.00;;;;;;;10.70;50.10;98997.00;6159070;23;20582;-87
2023/03/31 04:54:48;;;;;;;5.97;2.27;;;;;;;10.87;49.80;98994.31;6159827;23;20532;-87
2023/03/31 04:57:14;;;;;;;3.90;2.23;;;;;;;10.96;48.81;98985.91;6186015;23;20180;-87
2023/03/31 04:59:39;;;;;;;6.97;2.43;;;;;;;10.98;48.67;98981.41;6159584;23;20169;-87
2023/03/31 05:02:05;;;;;;;3.93;2.17;;;;;;;10.96;49.50;98988.53;6185668;23;20147;-87
2023/03/31 05:04:31;;;;;;;8.03;2.63;;;;;;;11.03;49.35;98997.78;6185859;23;20596;-87
2023/03/31 05:06:56;;;;;;;3.60;1.70;;;;;;;11.11;49.78;99011.28;6185908;23;20638;-87
2023/03/31 05:09:21;;;;;;;5.13;2.30;;;;;;;11.21;49.25;98999.34;6185563;23;20225;-87
2023/03/31 05:11:47;;;;;;;4.50;2.20;;;;;;;11.29;49.57;99002.38;6185449;23;20189;-87
2023/03/31 05:14:12;;;;;;;4.43;2.17;;;;;;;11.35;48.76;98995.91;6185559;23;20153;-87
2023/03/31 05:16:38;;;;;;;5.30;2.57;;;;;;;11.39;48.49;99002.69;6185469;23;20157;-87
2023/03/31 05:19:03;;;;;;;8.87;3.10;;;;;;;11.44;48.54;98991.00;6185473;23;20146;-87
2023/03/31 05:21:30;;;;;;;7.23;2.73;;;;;;;11.46;48.58;99002.22;6185462;23;20173;-87
2023/03/31 05:23:56;;;;;;;4.67;2.30;;;;;;;11.49;48.41;99002.06;6185662;23;20206;-87
2023/03/31 05:26:24;;;;;;;4.13;2.27;;;;;;;11.39;48.51;99000.06;6186068;23;20162;-87
2023/03/31 05:28:50;;;;;;;4.73;2.40;;;;;;;11.42;48.89;98994.63;6185412;23;20244;-87
2023/03/31 05:31:17;;;;;;;4.17;2.60;;;;;;;11.48;48.32;98994.25;6185385;23;20456;-87
2023/03/31 05:33:42;;;;;;;5.77;2.53;;;;;;;11.48;48.56;98997.72;6185730;23;20146;-88
2023/03/31 05:36:16;;;;;;;6.03;2.60;;;;;;;11.50;48.62;98987.97;6185375;23;20146;-87
2023/03/31 05:38:42;;;;;;;5.47;3.10;;;;;;;11.64;48.54;98981.94;6185272;23;20135;-88
2023/03/31 05:41:09;;;;;;;7.80;2.50;;;;;;;11.70;48.70;98985.09;6186287;23;20156;-87
2023/03/31 05:43:36;;;;;;;5.60;2.30;;;;;;;11.81;48.27;98983.59;6185353;23;20182;-87
2023/03/31 05:46:02;;;;;;;6.73;2.30;;;;;;;11.85;47.95;98980.69;6185364;23;20174;-88
2023/03/31 05:48:28;;;;;;;5.83;2.33;;;;;;;11.90;47.65;98977.78;6185288;23;20147;-87
2023/03/31 05:50:58;;;;;;;8.30;2.87;;;;;;;11.94;47.45;98979.28;6159347;23;20162;-87
2023/03/31 05:53:24;;;;;;;5.97;2.70;;;;;;;11.89;47.58;98968.22;6185925;23;20147;-87
2023/03/31 05:55:56;;;;;;;5.03;2.67;;;;;;;11.96;47.19;98969.53;6185609;23;20147;-87
2023/03/31 05:58:21;;;;;;;5.53;2.83;;;;;;;12.09;46.82;98957.34;6159220;23;20253;-87
2023/03/31 06:00:47;;;;;;;8.90;2.83;;;;;;;12.22;46.11;98960.91;6185200;23;20146;-87
2023/03/31 06:03:12;;;;;;;4.90;2.50;;;;;;;12.24;46.19;98948.50;6185138;23;20179;-87
2023/03/31 06:05:38;;;;;;;5.13;2.33;;;;;;;12.30;45.69;98948.13;6185189;23;20589;-88
2023/03/31 06:08:03;;;;;;;6.60;2.83;;;;;;;12.43;45.16;98951.66;6185530;23;20547;-87
2023/03/31 06:10:29;;;;;;;5.10;2.40;;;;;;;12.36;45.55;98946.91;6167877;23;20586;-87
2023/03/31 06:12:55;;;;;;;7.67;2.63;;;;;;;12.39;45.51;98949.34;6185845;23;20154;-88
2023/03/31 06:15:20;;;;;;;7.03;2.60;;;;;;;12.45;45.98;98949.78;6185403;23;20597;-88
2023/03/31 06:17:46;;;;;;;4.37;2.07;;;;;;;12.51;46.04;98959.06;6185223;23;20169;-88
2023/03/31 06:20:14;;;;;;;4.07;1.93;;;;;;;12.55;45.49;98958.78;6185767;23;20175;-88
2023/03/31 06:22:39;;;;;;;5.30;2.20;;;;;;;12.62;45.60;98946.09;6185069;23;20150;-88
2023/03/31 06:25:05;;;;;;;8.00;2.77;;;;;;;12.70;45.50;98955.19;6186031;23;20215;-89
2023/03/31 06:27:31;;;;;;;7.47;2.93;;;;;;;12.71;45.37;98951.59;6187034;23;20207;-88
2023/03/31 06:29:56;;;;;;;7.27;3.10;;;;;;;12.79;45.68;98946.69;6187321;23;20246;-88
2023/03/31 06:32:22;;;;;;;6.33;2.60;;;;;;;12.87;45.68;98947.03;6187262;23;20148;-88
2023/03/31 06:34:47;;;;;;;8.00;2.63;;;;;;;12.95;45.20;98936.88;6187587;23;20627;-88
2023/03/31 06:37:13;;;;;;;5.63;2.37;;;;;;;13.04;45.50;98940.69;6186021;23;20159;-88
2023/03/31 06:39:43;;;;;;;5.97;2.37;;;;;;;13.08;45.25;98944.81;6186035;23;20235;-88
2023/03/31 06:42:08;;;;;;;7.73;2.93;;;;;;;13.15;45.38;98932.13;6187155;23;20148;-88
2023/03/31 06:44:34;;;;;;;12.77;5.83;;;;;;;13.22;44.75;98942.16;6187048;23;20177;-88
2023/03/31 06:46:59;;;;;;;11.70;4.20;;;;;;;13.29;44.41;98942.56;6187405;23;20533;-88
2023/03/31 06:49:25;;;;;;;31.40;9.63;;;;;;;13.32;44.73;98932.69;6187070;23;20146;-88
2023/03/31 06:51:51;;;;;;;57.33;18.67;;;;;;;13.38;44.60;98937.53;6186957;23;20149;-88
2023/03/31 06:54:16;;;;;;;56.27;17.63;;;;;;;13.48;44.40;98935.13;6186797;23;20155;-88
2023/03/31 06:56:42;;;;;;;12.80;5.03;;;;;;;13.58;44.46;98944.09;6187126;23;20565;-88
2023/03/31 06:59:13;;;;;;;9.97;4.13;;;;;;;13.69;43.97;98941.56;6186793;23;20162;-88
2023/03/31 07:01:41;;;;;;;11.97;3.30;;;;;;;13.76;44.08;98937.56;6187283;23;20142;-88
2023/03/31 07:04:07;;;;;;;5.27;2.33;;;;;;;13.81;43.84;98932.00;6186914;23;20304;-88
2023/03/31 07:06:33;;;;;;;8.07;3.57;;;;;;;13.86;43.58;98922.81;6186919;23;20158;-88
2023/03/31 07:08:59;;;;;;;5.43;2.60;;;;;;;13.91;43.64;98926.00;6187377;23;20156;-88
2023/03/31 07:11:24;;;;;;;6.87;4.13;;;;;;;13.93;44.15;98916.19;6188158;23;20611;-87
2023/03/31 07:13:50;;;;;;;9.90;4.27;;;;;;;14.00;43.69;98922.69;6187418;23;20569;-87
2023/03/31 07:16:15;;;;;;;9.63;3.50;;;;;;;14.03;44.12;98924.28;6187628;23;20237;-88
2023/03/31 07:18:41;;;;;;;6.80;3.10;;;;;;;14.04;43.66;98924.19;6186906;23;20182;-88
2023/03/31 07:21:07;;;;;;;7.17;3.50;;;;;;;14.09;43.92;98921.22;6160553;23;20612;-87
2023/03/31 07:23:33;;;;;;;11.23;4.70;;;;;;;14.14;43.43;98927.00;6187031;23;20599;-88
2023/03/31 07:26:01;;;;;;;10.97;4.60;;;;;;;14.13;43.51;98920.91;6160637;23;20574;-88
2023/03/31 07:28:28;;;;;;;10.53;5.13;;;;;;;14.16;43.70;98904.88;6160740;23;20508;-88
2023/03/31 07:30:53;;;;;;;9.47;3.93;;;;;;;14.19;43.21;98909.06;6160620;23;20492;-88
2023/03/31 07:33:19;;;;;;;13.03;4.23;;;;;;;14.21;43.45;98903.69;6186471;23;20182;-88
2023/03/31 07:35:44;;;;;;;8.87;3.87;;;;;;;14.21;43.24;98903.69;6186893;23;20154;-87
2023/03/31 07:38:11;;;;;;;10.43;4.70;;;;;;;14.24;42.94;98906.97;6160594;23;20158;-88
2023/03/31 07:40:38;;;;;;;13.90;4.90;;;;;;;14.26;42.75;98901.56;6187038;23;20155;-88
2023/03/31 07:43:04;;;;;;;11.87;5.20;;;;;;;14.27;42.86;98905.88;6187215;23;20178;-88
2023/03/31 07:45:30;;;;;;;15.30;6.73;;;;;;;14.32;42.56;98895.88;6186615;23;20159;-88
2023/03/31 07:47:56;;;;;;;12.00;5.23;;;;;;;14.34;43.01;98896.63;6160530;23;20659;-87
2023/03/31 07:50:22;;;;;;;10.30;5.00;;;;;;;14.43;43.01;98888.06;6185681;23;20147;-88
2023/03/31 07:52:48;;;;;;;9.93;4.90;;;;;;;14.50;43.20;98891.94;6185993;23;20150;-87
2023/03/31 07:55:14;;;;;;;11.03;5.30;;;;;;;14.46;43.29;98891.34;6186187;23;20146;-88
2023/03/31 07:57:40;;;;;;;11.13;5.27;;;;;;;14.53;43.68;98891.72;6186116;23;20636;-88
2023/03/31 08:00:10;;;;;;;15.30;6.33;;;;;;;14.63;43.42;98892.72;6186178;23;20170;-88
2023/03/31 08:02:36;;;;;;;14.47;6.63;;;;;;;14.38;43.91;98887.56;6185963;23;20165;-88
2023/03/31 08:05:02;;;;;;;15.57;6.17;;;;;;;14.51;43.69;98888.34;6186182;23;20225;-88
2023/03/31 08:07:29;;;;;;;15.73;7.10;;;;;;;14.67;43.77;98892.38;6186112;23;20151;-89
2023/03/31 08:09:55;;;;;;;18.30;7.20;;;;;;;14.84;43.12;98900.84;6186119;23;20249;-89
2023/03/31 08:12:21;;;;;;;20.13;7.73;;;;;;;14.92;42.97;98893.22;6186024;23;20140;-89
2023/03/31 08:14:46;;;;;;;13.27;6.67;;;;;;;15.11;42.83;98890.91;6186073;23;20222;-89
2023/03/31 08:17:12;;;;;;;13.60;6.53;;;;;;;15.29;43.14;98881.59;6160589;23;20155;-88
2023/03/31 08:19:38;;;;;;;12.40;6.00;;;;;;;15.38;42.46;98887.00;6159673;23;20163;-88
2023/03/31 08:22:03;;;;;;;14.33;6.00;;;;;;;15.51;42.39;98889.63;6159938;23;20564;-88
2023/03/31 08:24:29;;;;;;;16.60;6.80;;;;;;;15.79;43.23;98881.25;6186541;23;20179;-88
2023/03/31 08:26:54;;;;;;;10.67;5.30;;;;;;;15.96;42.86;98867.53;6185930;23;20577;-88
2023/03/31 08:29:20;;;;;;;14.07;5.30;;;;;;;16.01;42.32;98872.44;6186261;23;20460;-89
2023/03/31 08:31:45;;;;;;;10.50;4.53;;;;;;;15.83;42.13;98866.81;6160238;23;20630;-89
2023/03/31 08:34:11;;;;;;;8.07;4.10;;;;;;;15.94;43.61;98858.03;6185689;23;20150;-89
2023/03/31 08:36:36;;;;;;;13.40;4.00;;;;;;;16.34;43.52;98851.28;6159366;23;20159;-89
2023/03/31 08:39:03;;;;;;;16.13;4.50;;;;;;;16.54;42.13;98847.88;6185610;23;20184;-89
2023/03/31 08:41:53;;;;;;;19.57;5.23;;;;;;;17.00;42.47;98836.16;6185605;23;20172;-88
2023/03/31 08:44:33;;;;;;;8.20;3.60;;;;;;;17.35;41.43;98823.41;6186038;23;20209;-89
2023/03/31 08:47:01;;;;;;;12.80;4.17;;;;;;;17.80;43.15;98824.81;6160370;23;20154;-88
2023/03/31 08:49:41;;;;;;;7.67;3.77;;;;;;;17.52;40.74;98820.19;6159878;23;20180;-89
2023/03/31 08:52:13;;;;;;;7.53;2.90;;;;;;;17.77;40.78;98808.31;6186050;23;20157;-88
2023/03/31 08:54:48;;;;;;;5.13;2.80;;;;;;;18.23;40.01;98807.78;6185783;23;20202;-88
2023/03/31 08:57:27;;;;;;;7.20;2.83;;;;;;;18.59;39.23;98803.66;6185674;23;20135;-88
2023/03/31 08:59:57;;;;;;;6.53;3.00;;;;;;;18.84;38.49;98800.47;6186050;23;20141;-88
2023/03/31 09:02:47;;;;;;;7.67;3.40;;;;;;;19.08;38.57;98794.72;6185490;23;20150;-88
2023/03/31 09:05:34;;;;;;;11.97;3.13;;;;;;;18.96;37.74;98784.22;6159573;23;20157;-88
2023/03/31 09:08:10;;;;;;;7.30;3.07;;;;;;;19.29;38.04;98779.38;6185564;23;20209;-88
2023/03/31 09:10:48;;;;;;;8.67;3.33;;;;;;;19.45;38.63;98769.03;6185614;23;20180;-89
2023/03/31 09:13:51;;;;;;;4.03;2.23;;;;;;;19.74;38.34;98759.13;6186252;23;20154;-88
2023/03/31 09:16:37;;;;;;;5.63;2.63;;;;;;;20.05;37.94;98754.31;6185475;23;20217;-87
2023/03/31 09:19:11;;;;;;;5.07;2.83;;;;;;;20.38;37.02;98747.56;6160149;23;20457;-88
2023/03/31 09:21:43;;;;;;;5.97;2.83;;;;;;;20.58;36.30;98749.06;6185833;23;20225;-88
2023/03/31 09:24:22;;;;;;;7.83;3.60;;;;;;;20.80;36.91;98743.28;6185297;23;20189;-91
2023/03/31 09:26:54;;;;;;;10.27;2.57;;;;;;;21.07;35.42;98734.38;6160866;23;20150;-89
2023/03/31 09:29:43;;;;;;;5.77;2.13;;;;;;;21.16;36.49;98720.94;6159873;23;20296;-88
2023/03/31 09:32:21;;;;;;;3.97;1.90;;;;;;;21.25;35.22;98717.31;6159398;23;20192;-89
2023/03/31 09:34:56;;;;;;;5.10;2.13;;;;;;;21.29;34.76;98724.00;6185668;23;20157;-88
2023/03/31 09:37:23;;;;;;;3.70;1.57;;;;;;;21.50;34.74;98710.28;6159443;23;20161;-87
2023/03/31 09:39:48;;;;;;;4.67;1.57;;;;;;;21.39;34.36;98707.88;6185387;23;20150;-88
2023/03/31 09:42:14;;;;;;;3.97;1.30;;;;;;;21.17;34.87;98706.59;6185368;23;20146;-88
2023/03/31 09:44:43;;;;;;;4.17;1.13;;;;;;;21.51;35.10;98706.63;6185001;23;20189;-88
2023/03/31 09:47:20;;;;;;;4.37;1.60;;;;;;;21.56;34.94;98696.31;6185344;23;20150;-89
2023/03/31 09:49:46;;;;;;;5.17;1.60;;;;;;;21.72;34.62;98700.88;6185673;23;20378;-88
2023/03/31 09:52:32;;;;;;;5.10;1.53;;;;;;;21.77;33.15;98695.88;6184961;23;20155;-88
2023/03/31 09:55:31;;;;;;;4.80;1.50;;;;;;;21.27;34.49;98690.50;6185618;23;20134;-89
2023/03/31 09:58:00;;;;;;;6.70;1.70;;;;;;;21.38;34.29;98693.72;6159582;23;20233;-89
2023/03/31 10:00:26;;;;;;;5.83;1.30;;;;;;;21.38;34.85;98688.38;6185283;23;20225;-89
2023/03/31 10:03:00;;;;;;;2.50;1.23;;;;;;;21.58;34.00;98686.31;6162343;23;20154;-88
2023/03/31 10:05:30;;;;;;;3.30;1.30;;;;;;;21.66;33.88;98690.84;6161283;23;20142;-88
2023/03/31 10:08:10;;;;;;;9.70;2.10;;;;;;;21.43;33.68;98683.41;6187364;23;20153;-88
2023/03/31 10:10:37;;;;;;;4.23;1.47;;;;;;;21.71;34.08;98683.19;6172603;23;20163;-88
2023/03/31 10:13:09;;;;;;;4.43;1.57;;;;;;;21.96;33.41;98671.59;6157469;23;20571;-88
2023/03/31 10:15:38;;;;;;;4.60;1.23;;;;;;;22.15;33.21;98671.31;6157493;23;20140;-88
2023/03/31 10:18:04;;;;;;;6.63;1.33;;;;;;;22.42;32.69;98668.34;6157202;23;20147;-88
2023/03/31 10:20:37;;;;;;;6.07;1.43;;;;;;;22.49;32.90;98663.16;6157388;23;20237;-88
2023/03/31 10:23:16;;;;;;;3.33;1.37;;;;;;;22.35;32.54;98667.31;6156877;23;20257;-88
2023/03/31 10:25:45;;;;;;;4.93;1.73;;;;;;;22.59;31.91;98656.66;6157562;23;20139;-88
2023/03/31 10:28:14;;;;;;;1.83;0.97;;;;;;;22.84;33.54;98648.63;6156892;23;20179;-88
2023/03/31 10:30:48;;;;;;;3.00;1.07;;;;;;;23.10;32.04;98634.06;6131455;23;20182;-88
2023/03/31 10:33:17;;;;;;;3.57;1.20;;;;;;;23.31;33.14;98636.16;6131210;23;20170;-88
2023/03/31 10:35:43;;;;;;;8.17;1.57;;;;;;;23.62;32.26;98629.00;6157227;23;20147;-89
2023/03/31 10:38:26;;;;;;;2.70;1.20;;;;;;;24.01;31.94;98628.09;6157216;23;20210;-87
2023/03/31 10:40:54;;;;;;;2.20;1.07;;;;;;;24.17;31.30;98626.19;6157645;23;20163;-88
2023/03/31 10:43:44;;;;;;;2.60;1.10;;;;;;;24.58;30.34;98617.81;6157124;23;20194;-88
2023/03/31 10:46:11;;;;;;;3.33;1.17;;;;;;;24.81;29.34;98606.06;6136576;23;20159;-88
2023/03/31 10:48:39;;;;;;;7.33;2.00;;;;;;;24.82;29.23;98591.63;6157128;23;20238;-89
2023/03/31 10:51:19;;;;;;;3.27;1.07;;;;;;;24.90;29.52;98594.22;6157382;23;20576;-88
2023/03/31 10:53:50;;;;;;;3.17;1.10;;;;;;;25.14;29.66;98600.31;6157401;23;20143;-87
2023/03/31 10:56:40;;;;;;;3.30;1.00;;;;;;;25.38;29.06;98595.50;6131305;23;20539;-88
2023/03/31 10:59:28;;;;;;;3.83;1.27;;;;;;;25.49;27.75;98595.06;6157362;23;20592;-89
2023/03/31 11:02:18;;;;;;;1.97;0.70;;;;;;;25.38;28.63;98591.97;6157672;23;20146;-87
2023/03/31 11:04:51;;;;;;;4.83;1.10;;;;;;;25.23;29.59;98583.13;6157597;23;20167;-89
2023/03/31 11:07:52;;;;;;;3.10;1.17;;;;;;;25.23;28.79;98588.50;6157346;23;20136;-88
2023/03/31 11:10:23;;;;;;;3.57;1.10;;;;;;;25.44;28.91;98580.50;6168042;23;20177;-88
2023/03/31 11:13:00;;;;;;;4.57;0.97;;;;;;;25.35;28.20;98578.94;6186389;23;20196;-88
2023/03/31 11:15:50;;;;;;;2.70;1.20;;;;;;;25.40;27.97;98563.94;6187049;23;20209;-88
2023/03/31 11:18:49;;;;;;;3.87;0.93;;;;;;;25.49;28.76;98562.00;6187341;23;20213;-88
2023/03/31 11:21:21;;;;;;;3.00;1.27;;;;;;;25.57;28.35;98545.78;6186901;23;20203;-88
2023/03/31 11:24:03;;;;;;;4.83;1.70;;;;;;;25.71;28.90;98547.59;6160511;23;20268;-88
2023/03/31 11:26:44;;;;;;;3.10;1.25;;;;;;;25.64;28.68;98539.47;6187274;23;20527;-88
2023/03/31 11:29:47;;;;;;;3.87;1.20;;;;;;;25.11;29.14;98528.28;6186879;23;20139;-88
2023/03/31 11:32:25;;;;;;;7.10;1.30;;;;;;;25.13;29.08;98528.94;6187180;23;20220;-88
2023/03/31 11:34:56;;;;;;;4.60;1.15;;;;;;;25.36;28.77;98521.59;6160460;23;20154;-88
2023/03/31 11:37:31;;;;;;;3.47;1.10;;;;;;;25.44;28.74;98519.63;6187145;23;20147;-88
2023/03/31 11:40:29;;;;;;;2.87;0.90;;;;;;;25.55;28.52;98515.66;6186805;23;20142;-88
2023/03/31 11:43:01;;;;;;;4.28;1.20;;;;;;;25.55;28.85;98519.13;6160394;23;20226;-88
2023/03/31 11:45:32;;;;;;;3.67;0.80;;;;;;;25.38;28.92;98512.31;6186401;23;20646;-87
2023/03/31 11:48:09;;;;;;;8.82;1.13;;;;;;;25.30;29.02;98508.91;6186732;23;20146;-87
2023/03/31 11:50:38;;;;;;;3.77;1.10;;;;;;;25.80;30.02;98500.81;6160413;23;20168;-88